Time;durP1;ratioP1;P1;durP2;ratioP2;P2;SDS_P1;SDS_P2;PMS_P1;PMS_P2;Temp;Humidity;BMP_temperature;BMP_pressure;BME280_temperature;BME280_humidity;BME280_pressure;Samples;Min_cycle;Max_cycle;Signal;HPM_P1;HPM_P2
2023/08/08 00:00:10;;;;;;;4.47;2.85;;;15.60;99.90;;;;;;5068199;28;20021;-73
2023/08/08 00:02:36;;;;;;;4.13;2.60;;;15.50;99.90;;;;;;5066167;28;20025;-73
2023/08/08 00:05:02;;;;;;;4.43;2.95;;;15.40;99.90;;;;;;5067997;28;20445;-73
2023/08/08 00:07:30;;;;;;;4.15;2.78;;;15.30;99.90;;;;;;5066185;28;20028;-73
2023/08/08 00:09:56;;;;;;;6.75;3.22;;;15.30;99.90;;;;;;5059897;28;20032;-72
2023/08/08 00:12:22;;;;;;;8.32;2.80;;;15.20;99.90;;;;;;5066606;28;20477;-74
2023/08/08 00:14:47;;;;;;;5.68;3.00;;;15.20;99.90;;;;;;5066814;28;20381;-73
2023/08/08 00:17:13;;;;;;;7.53;3.20;;;15.10;99.90;;;;;;5068333;28;20089;-74
2023/08/08 00:19:39;;;;;;;4.53;2.58;;;15.10;99.90;;;;;;5069273;28;20021;-74
2023/08/08 00:22:05;;;;;;;5.80;3.33;;;15.00;99.90;;;;;;5060699;28;20103;-74
2023/08/08 00:24:31;;;;;;;6.38;2.90;;;15.00;99.90;;;;;;5069010;28;20045;-74
2023/08/08 00:26:57;;;;;;;4.53;2.35;;;15.00;99.90;;;;;;5071558;28;20036;-73
2023/08/08 00:29:22;;;;;;;7.40;2.90;;;14.90;99.90;;;;;;5072455;28;20454;-73
2023/08/08 00:31:48;;;;;;;5.43;2.92;;;14.80;99.90;;;;;;5071552;28;20511;-73
2023/08/08 00:34:14;;;;;;;5.75;3.10;;;14.90;99.90;;;;;;5071747;28;20035;-73
2023/08/08 00:36:39;;;;;;;5.20;2.90;;;14.80;99.90;;;;;;5071591;28;20103;-73
2023/08/08 00:39:05;;;;;;;4.32;3.20;;;14.80;99.90;;;;;;5067401;28;20079;-73
2023/08/08 00:41:31;;;;;;;6.75;4.00;;;14.70;99.90;;;;;;5062841;28;20021;-74
2023/08/08 00:43:56;;;;;;;8.60;3.53;;;14.70;99.90;;;;;;5071472;28;20081;-74
2023/08/08 00:46:24;;;;;;;4.65;3.30;;;14.60;99.90;;;;;;5071326;28;20545;-74
2023/08/08 00:48:51;;;;;;;6.07;2.70;;;14.60;99.90;;;;;;5070924;28;20472;-73
2023/08/08 00:51:17;;;;;;;5.03;2.80;;;14.60;99.90;;;;;;5068984;28;20029;-73
2023/08/08 00:53:44;;;;;;;3.70;2.83;;;14.50;99.90;;;;;;5070397;28;20800;-74
2023/08/08 00:56:11;;;;;;;4.05;2.85;;;14.50;99.90;;;;;;5070125;28;20036;-73
2023/08/08 00:58:37;;;;;;;6.10;3.00;;;14.50;99.90;;;;;;5070965;28;20009;-73
2023/08/08 01:01:03;;;;;;;5.88;3.15;;;14.50;99.90;;;;;;5068369;28;20021;-73
2023/08/08 01:03:29;;;;;;;5.35;3.30;;;14.50;99.90;;;;;;5057599;28;20025;-73
2023/08/08 01:06:19;;;;;;;5.32;3.55;;;14.40;99.90;;;;;;5069869;28;20040;-74
2023/08/08 01:09:19;;;;;;;4.70;3.30;;;14.40;99.90;;;;;;5052949;28;20494;-74
2023/08/08 01:11:48;;;;;;;7.25;3.22;;;14.30;99.90;;;;;;5068416;28;20816;-73
2023/08/08 01:14:15;;;;;;;5.45;3.33;;;14.30;99.90;;;;;;5068951;28;20106;-73
2023/08/08 01:16:41;;;;;;;10.23;3.38;;;14.30;99.90;;;;;;5069095;28;20029;-73
2023/08/08 01:19:11;;;;;;;4.85;2.97;;;14.30;99.90;;;;;;5072652;28;20052;-74
2023/08/08 01:21:40;;;;;;;6.03;3.33;;;14.30;99.90;;;;;;5066504;28;20844;-74
2023/08/08 01:24:12;;;;;;;6.25;3.30;;;14.20;99.90;;;;;;5060363;28;20301;-74
2023/08/08 01:26:38;;;;;;;8.32;3.33;;;14.20;99.90;;;;;;5062720;28;20033;-73
2023/08/08 01:29:04;;;;;;;5.07;3.47;;;14.20;99.90;;;;;;5067254;28;20083;-74
2023/08/08 01:31:29;;;;;;;4.10;3.50;;;14.20;99.90;;;;;;5077809;28;20531;-74
2023/08/08 01:33:55;;;;;;;4.78;3.03;;;14.10;99.90;;;;;;5077206;28;20051;-74
2023/08/08 01:36:27;;;;;;;5.75;3.45;;;14.10;99.90;;;;;;5075851;28;20093;-74
2023/08/08 01:38:59;;;;;;;5.70;3.40;;;14.00;99.90;;;;;;5077167;28;20397;-74
2023/08/08 01:41:25;;;;;;;4.88;2.95;;;13.90;99.90;;;;;;5076338;28;20029;-73
2023/08/08 01:43:52;;;;;;;4.70;3.22;;;13.90;99.90;;;;;;5077564;28;20039;-73
2023/08/08 01:46:18;;;;;;;5.70;3.30;;;13.90;99.90;;;;;;5069951;28;20028;-73
2023/08/08 01:48:47;;;;;;;6.30;2.92;;;13.80;99.90;;;;;;5055917;28;20566;-74
2023/08/08 01:51:12;;;;;;;6.13;3.42;;;13.80;99.90;;;;;;5069956;28;20544;-74
2023/08/08 01:53:38;;;;;;;5.80;3.13;;;13.80;99.90;;;;;;5063920;28;20071;-73
2023/08/08 01:56:04;;;;;;;5.85;3.05;;;13.70;99.90;;;;;;5069380;28;20885;-73
2023/08/08 01:58:29;;;;;;;6.75;3.00;;;13.70;99.90;;;;;;5063825;28;20086;-74
2023/08/08 02:00:55;;;;;;;5.38;3.42;;;13.60;99.90;;;;;;5067948;28;20021;-74
2023/08/08 02:03:20;;;;;;;4.15;3.20;;;13.60;99.90;;;;;;5062522;28;20029;-74
2023/08/08 02:05:46;;;;;;;4.72;2.97;;;13.70;99.90;;;;;;5069822;28;20143;-74
2023/08/08 02:08:12;;;;;;;7.22;2.88;;;13.60;99.90;;;;;;5063802;28;20075;-74
2023/08/08 02:10:38;;;;;;;3.75;3.30;;;13.60;99.90;;;;;;5070230;28;20151;-74
2023/08/08 02:13:04;;;;;;;6.47;3.53;;;13.60;99.90;;;;;;5064000;28;20053;-74
2023/08/08 02:15:29;;;;;;;5.38;3.10;;;13.60;99.90;;;;;;5066746;28;20028;-74
2023/08/08 02:17:55;;;;;;;4.40;3.10;;;13.60;99.90;;;;;;5075041;28;20029;-73
2023/08/08 02:20:21;;;;;;;5.22;3.20;;;13.60;99.90;;;;;;5068714;28;20554;-73
2023/08/08 02:22:47;;;;;;;4.93;3.30;;;13.50;99.90;;;;;;5061172;28;20132;-74
2023/08/08 02:25:12;;;;;;;4.00;3.05;;;13.50;99.90;;;;;;5072919;28;20048;-74
2023/08/08 02:27:38;;;;;;;5.22;3.17;;;13.50;99.90;;;;;;5075328;28;20460;-73
2023/08/08 02:30:04;;;;;;;7.15;3.75;;;13.50;99.90;;;;;;5074440;28;20035;-73
2023/08/08 02:32:30;;;;;;;4.38;3.70;;;13.50;99.90;;;;;;5074586;28;20447;-74
2023/08/08 02:34:55;;;;;;;5.85;3.13;;;13.40;99.90;;;;;;5070815;28;20020;-74
2023/08/08 02:37:21;;;;;;;6.30;3.20;;;13.40;99.90;;;;;;5068091;28;20028;-74
2023/08/08 02:39:47;;;;;;;6.43;3.40;;;13.30;99.90;;;;;;5070893;28;20056;-74
2023/08/08 02:42:12;;;;;;;6.47;3.20;;;13.30;99.90;;;;;;5067692;28;20078;-74
2023/08/08 02:44:38;;;;;;;6.30;3.67;;;13.30;99.90;;;;;;5069460;28;20025;-74
2023/08/08 02:47:04;;;;;;;5.28;3.25;;;13.30;99.90;;;;;;5068208;28;20028;-73
2023/08/08 02:49:29;;;;;;;5.65;3.75;;;13.20;99.90;;;;;;5069403;28;20020;-74
2023/08/08 02:51:55;;;;;;;4.75;3.13;;;13.30;99.90;;;;;;5056139;28;20028;-74
2023/08/08 02:54:21;;;;;;;5.03;3.38;;;13.20;99.90;;;;;;5059323;28;20464;-74
2023/08/08 02:56:46;;;;;;;4.20;3.25;;;13.20;99.90;;;;;;5058013;28;20039;-74
2023/08/08 02:59:12;;;;;;;4.25;3.15;;;13.20;99.90;;;;;;5059889;28;20029;-73
2023/08/08 03:01:39;;;;;;;7.35;3.58;;;13.20;99.90;;;;;;5057989;28;20029;-73
2023/08/08 03:04:05;;;;;;;6.95;3.67;;;13.20;99.90;;;;;;5057792;28;20031;-74
2023/08/08 03:06:31;;;;;;;6.70;2.80;;;13.10;99.90;;;;;;5057113;28;20597;-72
2023/08/08 03:08:57;;;;;;;5.43;3.60;;;13.10;99.90;;;;;;5057919;28;20146;-72
2023/08/08 03:11:22;;;;;;;4.30;2.88;;;13.10;99.90;;;;;;5057707;28;20029;-72
2023/08/08 03:13:48;;;;;;;4.30;3.33;;;13.10;99.90;;;;;;5058841;28;20083;-72
2023/08/08 03:16:14;;;;;;;5.47;3.40;;;13.00;99.90;;;;;;5057449;28;20055;-72
2023/08/08 03:18:39;;;;;;;5.60;2.97;;;12.90;99.90;;;;;;5056877;28;20392;-72
2023/08/08 03:21:05;;;;;;;7.70;3.13;;;12.90;99.90;;;;;;5047748;28;20028;-72
2023/08/08 03:23:31;;;;;;;7.13;3.05;;;12.90;99.90;;;;;;5054216;28;20045;-72
2023/08/08 03:25:57;;;;;;;4.30;3.05;;;12.90;99.90;;;;;;5057270;28;20585;-72
2023/08/08 03:28:22;;;;;;;7.00;2.85;;;12.90;99.90;;;;;;5057136;28;20036;-73
2023/08/08 03:30:48;;;;;;;5.00;2.85;;;12.90;99.90;;;;;;5055003;28;20102;-72
2023/08/08 03:33:14;;;;;;;4.20;3.58;;;12.80;99.90;;;;;;5056751;28;20033;-72
2023/08/08 03:35:39;;;;;;;5.20;3.10;;;12.80;99.90;;;;;;5056149;28;20029;-72
2023/08/08 03:38:05;;;;;;;4.88;3.45;;;12.80;99.90;;;;;;5055258;28;20079;-72
2023/08/08 03:40:31;;;;;;;11.00;3.80;;;12.70;99.90;;;;;;5055790;28;20033;-74
2023/08/08 03:42:56;;;;;;;4.78;3.03;;;12.70;99.90;;;;;;5056433;28;20480;-73
2023/08/08 03:45:22;;;;;;;5.85;3.42;;;12.70;99.90;;;;;;5056295;28;20025;-73
2023/08/08 03:47:48;;;;;;;5.90;3.22;;;12.70;99.90;;;;;;5056943;28;20036;-73
2023/08/08 03:50:13;;;;;;;7.30;3.35;;;12.70;99.90;;;;;;5056600;28;20028;-73
2023/08/08 03:52:39;;;;;;;6.90;2.72;;;12.60;99.90;;;;;;5057107;28;20033;-73
2023/08/08 03:55:05;;;;;;;3.35;2.65;;;12.60;99.90;;;;;;5057072;28;20551;-73
2023/08/08 03:57:31;;;;;;;7.40;3.30;;;12.50;99.90;;;;;;5056016;28;20469;-72
2023/08/08 03:59:57;;;;;;;5.70;3.30;;;12.50;99.90;;;;;;5056838;28;20028;-72
2023/08/08 04:02:22;;;;;;;6.40;4.68;;;12.50;99.90;;;;;;5058024;28;20021;-73
2023/08/08 04:04:48;;;;;;;4.40;3.30;;;12.50;99.90;;;;;;5056362;28;20039;-72
2023/08/08 04:07:14;;;;;;;4.88;3.40;;;12.50;99.90;;;;;;5057151;28;20029;-72
2023/08/08 04:09:40;;;;;;;4.97;3.15;;;12.40;99.90;;;;;;5056666;28;20037;-73
2023/08/08 04:12:05;;;;;;;5.47;3.65;;;12.40;99.90;;;;;;5057529;28;20021;-73
2023/08/08 04:14:31;;;;;;;5.22;3.33;;;12.40;99.90;;;;;;5055191;28;20036;-73
2023/08/08 04:16:57;;;;;;;5.68;3.03;;;12.40;99.90;;;;;;5058144;28;20068;-73
2023/08/08 04:19:23;;;;;;;6.45;3.65;;;12.30;99.90;;;;;;5055475;28;20056;-73
2023/08/08 04:21:48;;;;;;;7.50;4.30;;;12.30;99.90;;;;;;5057437;28;20025;-73
2023/08/08 04:24:14;;;;;;;5.22;3.22;;;12.30;99.90;;;;;;5045491;28;20048;-73
2023/08/08 04:26:40;;;;;;;4.55;2.90;;;12.20;99.90;;;;;;5055872;28;20344;-73
2023/08/08 04:29:06;;;;;;;4.00;3.22;;;12.20;99.90;;;;;;5043695;28;20033;-73
2023/08/08 04:31:31;;;;;;;6.57;3.10;;;12.20;99.90;;;;;;5057239;28;20025;-73
2023/08/08 04:34:00;;;;;;;5.65;3.35;;;12.10;99.90;;;;;;5056700;28;20051;-73
2023/08/08 04:36:29;;;;;;;5.85;3.25;;;12.10;99.90;;;;;;5054679;28;20051;-73
2023/08/08 04:38:54;;;;;;;7.07;4.07;;;12.00;99.90;;;;;;5054214;28;20083;-73
2023/08/08 04:41:20;;;;;;;5.80;3.47;;;12.00;99.90;;;;;;5054443;28;20030;-73
2023/08/08 04:43:46;;;;;;;7.07;3.70;;;12.00;99.90;;;;;;5053739;28;20025;-73
2023/08/08 04:46:12;;;;;;;4.13;3.42;;;11.90;99.90;;;;;;5055319;28;20053;-73
2023/08/08 04:48:38;;;;;;;6.10;3.50;;;11.90;99.90;;;;;;5055193;28;20029;-73
2023/08/08 04:51:05;;;;;;;9.50;3.45;;;11.90;99.90;;;;;;5055031;28;20016;-73
2023/08/08 04:53:30;;;;;;;4.95;3.60;;;11.80;99.90;;;;;;5054995;28;20118;-73
2023/08/08 04:55:56;;;;;;;9.00;3.80;;;11.80;99.90;;;;;;5055540;28;20040;-73
2023/08/08 04:58:21;;;;;;;4.95;3.28;;;11.80;99.90;;;;;;5053602;28;20501;-73
2023/08/08 05:00:47;;;;;;;5.47;3.85;;;11.80;99.90;;;;;;5062258;28;20021;-73
2023/08/08 05:03:13;;;;;;;3.63;3.33;;;11.80;99.90;;;;;;5067506;28;20112;-73
2023/08/08 05:05:38;;;;;;;6.75;3.38;;;11.80;99.90;;;;;;5056975;28;20095;-71
2023/08/08 05:08:04;;;;;;;4.55;3.50;;;11.90;99.90;;;;;;5054990;28;20027;-72
2023/08/08 05:10:31;;;;;;;6.68;4.00;;;11.90;99.90;;;;;;5064859;28;20032;-72
2023/08/08 05:12:57;;;;;;;7.35;3.63;;;12.00;99.90;;;;;;5063151;28;20064;-72
2023/08/08 05:15:23;;;;;;;6.68;3.40;;;12.00;99.90;;;;;;5067781;28;20397;-73
2023/08/08 05:17:48;;;;;;;8.50;3.88;;;12.10;99.90;;;;;;5063506;28;20087;-71
2023/08/08 05:20:15;;;;;;;4.43;3.20;;;12.10;99.90;;;;;;5060884;28;20013;-71
2023/08/08 05:22:40;;;;;;;4.45;3.03;;;12.20;99.90;;;;;;5059788;28;20044;-72
2023/08/08 05:25:06;;;;;;;5.30;3.67;;;12.20;99.90;;;;;;5061150;28;20389;-73
2023/08/08 05:27:32;;;;;;;5.80;3.80;;;12.20;99.90;;;;;;5058477;28;20036;-72
2023/08/08 05:29:58;;;;;;;5.97;3.08;;;12.30;99.90;;;;;;5060819;28;20017;-73
2023/08/08 05:32:24;;;;;;;5.88;3.80;;;12.30;99.90;;;;;;5058373;28;20039;-73
2023/08/08 05:34:51;;;;;;;5.65;3.63;;;12.40;99.90;;;;;;5067825;28;20052;-72
2023/08/08 05:37:17;;;;;;;5.57;3.35;;;12.50;99.90;;;;;;5067726;28;20076;-72
2023/08/08 05:39:43;;;;;;;7.10;3.25;;;12.60;99.90;;;;;;5069744;28;20033;-73
2023/08/08 05:42:08;;;;;;;4.68;3.13;;;12.70;99.90;;;;;;5067205;28;20510;-73
2023/08/08 05:44:34;;;;;;;5.72;3.45;;;12.80;99.90;;;;;;5070341;28;20063;-72
2023/08/08 05:47:00;;;;;;;5.25;3.33;;;12.80;99.90;;;;;;5067399;28;20059;-72
2023/08/08 05:49:25;;;;;;;5.55;3.47;;;12.80;99.90;;;;;;5071825;28;20047;-73
2023/08/08 05:51:51;;;;;;;3.92;3.22;;;13.00;99.90;;;;;;5067531;28;20028;-73
2023/08/08 05:54:16;;;;;;;4.55;3.17;;;13.10;99.90;;;;;;5071802;28;20389;-72
2023/08/08 05:56:42;;;;;;;7.82;3.88;;;13.30;99.90;;;;;;5068026;28;20036;-72
2023/08/08 05:59:08;;;;;;;6.15;3.58;;;13.30;99.90;;;;;;5072259;28;20028;-73
2023/08/08 06:01:34;;;;;;;4.70;3.08;;;13.50;99.90;;;;;;5066711;28;20067;-73
2023/08/08 06:04:00;;;;;;;7.20;3.42;;;13.60;99.90;;;;;;5072195;28;20023;-73
2023/08/08 06:06:26;;;;;;;7.00;3.33;;;13.70;99.90;;;;;;5066799;28;20045;-72
2023/08/08 06:08:52;;;;;;;6.55;3.40;;;13.70;99.90;;;;;;5072505;28;20028;-73
2023/08/08 06:11:18;;;;;;;5.57;3.35;;;13.70;99.90;;;;;;5064932;28;20031;-74
2023/08/08 06:13:44;;;;;;;8.02;4.97;;;13.90;99.90;;;;;;5059303;28;20032;-73
2023/08/08 06:16:09;;;;;;;4.03;3.47;;;14.00;99.90;;;;;;5067444;28;20111;-74
2023/08/08 06:18:35;;;;;;;5.15;3.55;;;14.10;99.90;;;;;;5074071;28;20108;-74
2023/08/08 06:21:02;;;;;;;4.75;3.38;;;14.20;99.90;;;;;;5070378;28;20016;-74
2023/08/08 06:23:27;;;;;;;6.72;4.03;;;14.30;99.90;;;;;;5070297;28;20052;-74
2023/08/08 06:25:54;;;;;;;7.75;3.67;;;14.40;99.90;;;;;;5071878;28;20032;-74
2023/08/08 06:28:19;;;;;;;6.95;3.75;;;14.50;99.90;;;;;;5076520;28;20032;-74
2023/08/08 06:30:45;;;;;;;7.18;3.75;;;14.60;99.90;;;;;;5076333;28;20388;-74
2023/08/08 06:33:11;;;;;;;5.20;3.60;;;14.70;99.90;;;;;;5076588;28;20036;-74
2023/08/08 06:35:37;;;;;;;4.35;3.22;;;14.70;99.90;;;;;;5071753;28;20048;-74
2023/08/08 06:38:03;;;;;;;6.30;3.10;;;14.80;99.90;;;;;;5076122;28;20028;-74
2023/08/08 06:40:28;;;;;;;5.80;3.28;;;14.90;99.90;;;;;;5058072;28;20034;-74
2023/08/08 06:42:55;;;;;;;8.45;3.60;;;15.20;99.90;;;;;;5065657;28;20027;-74
2023/08/08 06:45:20;;;;;;;8.07;4.15;;;15.40;99.90;;;;;;5062660;28;20017;-74
2023/08/08 06:47:46;;;;;;;5.97;3.90;;;15.40;99.90;;;;;;5066859;28;20024;-74
2023/08/08 06:50:12;;;;;;;4.93;3.30;;;15.50;99.90;;;;;;5062452;28;20029;-74
2023/08/08 06:52:38;;;;;;;4.57;3.35;;;15.80;99.90;;;;;;5053947;28;20112;-74
2023/08/08 06:55:04;;;;;;;6.50;3.78;;;15.90;99.90;;;;;;5052611;28;20027;-74
2023/08/08 06:57:33;;;;;;;6.55;3.35;;;16.10;99.90;;;;;;5075765;28;20037;-74
2023/08/08 06:59:59;;;;;;;6.47;3.63;;;16.40;99.90;;;;;;5055188;28;20032;-75
2023/08/08 07:02:25;;;;;;;5.93;3.38;;;16.50;99.90;;;;;;5065780;28;20259;-74
2023/08/08 07:04:51;;;;;;;14.63;3.40;;;16.70;99.90;;;;;;5059441;28;20029;-74
2023/08/08 07:07:17;;;;;;;6.25;3.60;;;16.80;99.90;;;;;;5064524;28;20035;-75
2023/08/08 07:09:43;;;;;;;8.40;3.38;;;16.90;99.90;;;;;;5057055;28;20108;-74
2023/08/08 07:12:09;;;;;;;4.93;3.05;;;17.10;99.90;;;;;;5068180;28;20078;-75
2023/08/08 07:14:34;;;;;;;7.35;3.92;;;17.20;99.90;;;;;;5062633;28;20064;-74
2023/08/08 07:17:02;;;;;;;6.47;3.40;;;17.20;99.90;;;;;;5049303;28;20017;-75
2023/08/08 07:19:28;;;;;;;6.97;2.85;;;17.30;99.90;;;;;;5057784;28;20021;-75
2023/08/08 07:21:54;;;;;;;3.65;2.95;;;17.30;99.90;;;;;;5055824;28;20087;-75
2023/08/08 07:24:20;;;;;;;5.20;2.90;;;17.40;99.90;;;;;;5061842;28;20059;-76
2023/08/08 07:26:46;;;;;;;5.10;3.10;;;17.60;99.90;;;;;;5055535;28;20378;-76
2023/08/08 07:29:11;;;;;;;5.40;3.05;;;17.70;99.90;;;;;;5057936;28;20040;-76
2023/08/08 07:31:37;;;;;;;8.18;3.40;;;17.90;99.90;;;;;;5052685;28;20048;-76
2023/08/08 07:34:03;;;;;;;7.90;2.95;;;18.10;99.90;;;;;;5058017;28;20029;-76
2023/08/08 07:36:28;;;;;;;5.72;3.17;;;18.20;99.90;;;;;;5059788;28;20513;-75
2023/08/08 07:38:59;;;;;;;5.47;2.70;;;18.30;99.90;;;;;;5058134;28;20448;-76
2023/08/08 07:41:26;;;;;;;;;;;18.40;99.90;;;;;;5055958;28;20029;-75
2023/08/08 07:43:51;;;;;;;4.70;2.72;;;18.40;99.90;;;;;;5054601;28;19909;-75
2023/08/08 07:46:17;;;;;;;5.22;2.30;;;18.60;99.90;;;;;;5057092;28;20044;-74
2023/08/08 07:48:43;;;;;;;6.28;2.70;;;18.80;99.90;;;;;;5053852;28;20056;-74
2023/08/08 07:51:08;;;;;;;9.23;3.20;;;19.00;99.90;;;;;;5059636;28;20460;-73
2023/08/08 07:53:34;;;;;;;4.90;2.75;;;19.10;99.90;;;;;;5055248;28;20024;-74
2023/08/08 07:56:00;;;;;;;4.97;2.90;;;19.20;99.90;;;;;;5055859;28;20664;-74
2023/08/08 07:58:26;;;;;;;9.18;2.67;;;19.40;99.90;;;;;;5054056;28;20037;-73
2023/08/08 08:00:53;;;;;;;5.07;2.72;;;19.70;99.90;;;;;;5055543;28;20112;-74
2023/08/08 08:03:19;;;;;;;4.80;2.67;;;19.90;99.90;;;;;;5055175;28;20052;-74
2023/08/08 08:05:45;;;;;;;5.03;2.60;;;20.00;99.90;;;;;;5055517;28;20167;-73
2023/08/08 08:08:10;;;;;;;6.97;2.80;;;20.10;99.90;;;;;;5052152;28;20052;-74
2023/08/08 08:10:36;;;;;;;4.55;2.33;;;20.30;99.90;;;;;;5053064;28;20020;-73
2023/08/08 08:13:02;;;;;;;5.80;2.78;;;20.50;99.90;;;;;;5056232;28;20033;-74
2023/08/08 08:15:28;;;;;;;6.35;2.83;;;20.60;99.90;;;;;;5051025;28;20040;-74
2023/08/08 08:17:54;;;;;;;4.85;2.33;;;20.80;99.90;;;;;;5044647;28;20032;-74
2023/08/08 08:20:20;;;;;;;3.60;2.28;;;21.10;99.90;;;;;;5054331;28;20021;-73
2023/08/08 08:22:46;;;;;;;6.47;3.08;;;21.10;99.90;;;;;;5053329;28;20041;-73
2023/08/08 08:25:12;;;;;;;11.93;2.47;;;21.20;99.90;;;;;;5057272;28;20039;-73
2023/08/08 08:27:38;;;;;;;7.53;2.53;;;21.30;99.90;;;;;;5053321;28;20413;-73
2023/08/08 08:30:06;;;;;;;5.05;1.95;;;21.40;99.90;;;;;;5047927;28;20363;-73
2023/08/08 08:32:33;;;;;;;4.03;2.05;;;21.50;99.90;;;;;;5056932;28;20100;-74
2023/08/08 08:35:00;;;;;;;6.70;2.13;;;21.70;99.90;;;;;;5053459;28;20025;-74
2023/08/08 08:37:26;;;;;;;5.43;2.55;;;21.80;99.90;;;;;;5053897;28;20678;-74
2023/08/08 08:39:51;;;;;;;5.43;1.90;;;21.80;99.90;;;;;;5055900;28;20025;-74
2023/08/08 08:42:17;;;;;;;3.92;2.03;;;21.80;99.90;;;;;;5051627;28;20485;-74
2023/08/08 08:44:43;;;;;;;4.43;2.13;;;21.80;99.90;;;;;;5052676;28;20036;-73
2023/08/08 08:47:12;;;;;;;5.47;2.60;;;22.00;99.90;;;;;;5054292;28;20033;-74
2023/08/08 08:49:39;;;;;;;4.40;2.15;;;22.30;99.90;;;;;;5059674;28;20086;-73
2023/08/08 08:52:05;;;;;;;2.95;2.35;;;22.40;99.90;;;;;;5058753;28;20046;-73
2023/08/08 08:54:32;;;;;;;4.68;1.95;;;22.30;99.90;;;;;;5059420;28;20067;-73
2023/08/08 08:56:58;;;;;;;4.18;2.17;;;22.50;99.90;;;;;;5059668;28;20052;-73
2023/08/08 08:59:24;;;;;;;3.45;2.25;;;22.60;99.90;;;;;;5056538;28;20025;-74
2023/08/08 09:01:51;;;;;;;5.90;2.53;;;22.60;99.90;;;;;;5062391;28;20021;-74
2023/08/08 09:04:19;;;;;;;3.72;2.20;;;22.50;99.90;;;;;;5059027;28;20028;-74
2023/08/08 09:06:47;;;;;;;5.63;2.00;;;22.60;99.90;;;;;;5055667;28;20405;-73
2023/08/08 09:09:16;;;;;;;6.30;1.88;;;22.70;99.90;;;;;;5058767;28;20027;-73
2023/08/08 09:11:54;;;;;;;5.60;2.05;;;22.80;99.90;;;;;;5058735;28;20021;-73
2023/08/08 09:14:25;;;;;;;5.97;2.08;;;22.70;99.90;;;;;;5056875;28;20032;-73
2023/08/08 09:16:56;;;;;;;3.53;1.80;;;22.70;99.90;;;;;;5062222;28;20051;-74
2023/08/08 09:19:23;;;;;;;3.60;1.98;;;22.80;99.90;;;;;;5058672;28;20033;-73
2023/08/08 09:21:50;;;;;;;5.72;2.17;;;22.90;99.90;;;;;;5060808;28;20017;-75
2023/08/08 09:24:16;;;;;;;3.85;1.67;;;23.00;99.50;;;;;;5055119;28;20048;-73
2023/08/08 09:26:43;;;;;;;7.70;2.22;;;23.20;99.90;;;;;;5056340;28;20043;-73
2023/08/08 09:29:12;;;;;;;7.53;1.90;;;23.30;99.90;;;;;;5059826;28;20501;-76
2023/08/08 09:31:38;;;;;;;6.38;2.78;;;23.40;97.90;;;;;;5052984;28;20443;-74
2023/08/08 09:34:04;;;;;;;5.55;1.83;;;23.20;96.90;;;;;;5056782;28;20024;-74
2023/08/08 09:36:30;;;;;;;6.47;2.20;;;23.10;97.20;;;;;;5052208;28;20025;-73
2023/08/08 09:38:57;;;;;;;6.03;2.08;;;23.00;97.70;;;;;;5053430;28;20051;-73
2023/08/08 09:41:23;;;;;;;5.38;2.10;;;23.10;98.80;;;;;;5059463;28;20569;-73
2023/08/08 09:43:53;;;;;;;5.90;2.00;;;23.40;99.80;;;;;;5056913;28;20033;-73
2023/08/08 09:46:20;;;;;;;2.30;1.58;;;23.60;99.00;;;;;;5057655;28;20472;-74
2023/08/08 09:48:46;;;;;;;5.38;1.80;;;23.80;97.00;;;;;;5056552;28;20091;-75
2023/08/08 09:51:13;;;;;;;5.43;2.42;;;23.90;96.00;;;;;;5059938;28;20096;-74
2023/08/08 09:53:39;;;;;;;6.75;2.67;;;23.70;95.30;;;;;;5056000;28;20053;-74
2023/08/08 09:56:06;;;;;;;3.22;2.03;;;23.60;95.80;;;;;;5057525;28;20030;-74
2023/08/08 09:58:33;;;;;;;8.55;2.40;;;23.60;97.10;;;;;;5054302;28;20700;-75
2023/08/08 10:00:59;;;;;;;6.63;1.92;;;23.70;96.00;;;;;;5056100;28;20017;-73
2023/08/08 10:03:26;;;;;;;4.00;2.00;;;23.60;95.70;;;;;;5059490;28;20112;-73
2023/08/08 10:05:52;;;;;;;4.40;2.13;;;23.50;96.30;;;;;;5056476;28;20047;-74
2023/08/08 10:08:18;;;;;;;4.13;2.20;;;23.60;95.00;;;;;;5058823;28;20496;-73
2023/08/08 10:10:46;;;;;;;4.15;1.80;;;23.70;95.60;;;;;;5060311;28;20056;-77
2023/08/08 10:13:26;;;;;;;4.35;2.50;;;23.90;93.80;;;;;;5055411;28;20410;-73
2023/08/08 10:15:53;;;;;;;4.32;1.92;;;23.90;94.30;;;;;;5062862;28;20033;-76
2023/08/08 10:18:22;;;;;;;5.25;2.10;;;23.90;92.70;;;;;;5060503;28;20489;-75
2023/08/08 10:20:49;;;;;;;8.85;2.10;;;24.00;92.80;;;;;;5053103;28;20078;-75
2023/08/08 10:23:16;;;;;;;4.95;2.03;;;23.90;92.70;;;;;;5063749;28;20076;-74
2023/08/08 10:25:50;;;;;;;5.35;1.90;;;23.80;92.00;;;;;;5059699;28;20074;-73
2023/08/08 10:28:20;;;;;;;6.60;2.05;;;23.90;93.00;;;;;;5050897;28;20025;-73
2023/08/08 10:30:56;;;;;;;7.00;2.20;;;24.20;90.90;;;;;;5062388;28;20024;-73
2023/08/08 10:33:26;;;;;;;8.20;2.40;;;24.30;92.10;;;;;;5055480;28;20071;-74
2023/08/08 10:36:01;;;;;;;;;;;24.40;92.00;;;;;;5057848;28;20029;-76
2023/08/08 10:38:44;;;;;;;3.67;1.90;;;24.50;91.00;;;;;;5058009;28;19938;-74
2023/08/08 10:41:20;;;;;;;5.25;2.08;;;24.50;90.90;;;;;;5058999;28;20045;-74
2023/08/08 10:43:54;;;;;;;2.85;1.50;;;24.40;91.70;;;;;;5052416;28;20028;-73
2023/08/08 10:46:33;;;;;;;5.90;2.20;;;24.40;91.30;;;;;;5058285;28;20028;-74
2023/08/08 10:49:01;;;;;;;5.65;2.65;;;24.60;91.70;;;;;;5059802;28;20012;-73
2023/08/08 10:51:42;;;;;;;6.65;2.50;;;24.70;91.30;;;;;;5058083;28;20025;-73
2023/08/08 10:54:28;;;;;;;4.93;2.00;;;24.70;90.60;;;;;;5056239;28;20044;-73
2023/08/08 10:56:56;;;;;;;3.55;1.60;;;24.90;90.50;;;;;;5055818;28;20033;-74
2023/08/08 10:59:42;;;;;;;4.30;2.08;;;25.00;90.30;;;;;;5058975;28;20028;-73
2023/08/08 11:02:08;;;;;;;6.40;2.20;;;25.10;90.40;;;;;;5055574;28;20048;-77
2023/08/08 11:04:35;;;;;;;6.10;1.90;;;25.10;83.20;;;;;;5057139;28;20024;-75
2023/08/08 11:07:01;;;;;;;4.70;2.20;;;25.20;83.20;;;;;;5058674;28;20017;-74
2023/08/08 11:09:27;;;;;;;3.85;2.13;;;25.10;86.90;;;;;;5056727;28;20033;-74
2023/08/08 11:11:53;;;;;;;5.90;2.45;;;25.10;82.70;;;;;;5058070;28;20061;-74
2023/08/08 11:14:20;;;;;;;5.03;2.50;;;25.10;86.80;;;;;;5058713;28;20032;-74
2023/08/08 11:16:48;;;;;;;5.32;2.28;;;25.20;85.30;;;;;;5054709;28;20815;-74
2023/08/08 11:19:16;;;;;;;5.93;2.50;;;25.30;80.80;;;;;;5055271;28;20718;-74
2023/08/08 11:21:43;;;;;;;5.93;2.50;;;25.40;80.30;;;;;;5059040;28;20097;-74
2023/08/08 11:24:10;;;;;;;3.35;1.80;;;25.40;80.00;;;;;;5056613;28;20044;-74
2023/08/08 11:26:37;;;;;;;5.72;2.40;;;25.60;79.00;;;;;;5054355;28;20045;-73
2023/08/08 11:29:07;;;;;;;6.43;1.90;;;25.70;79.90;;;;;;5054498;28;20009;-75
2023/08/08 11:31:37;;;;;;;3.85;2.30;;;25.60;80.00;;;;;;5056933;28;20029;-73
2023/08/08 11:34:04;;;;;;;5.63;2.38;;;25.60;82.50;;;;;;5054919;28;20434;-74
2023/08/08 11:36:32;;;;;;;5.88;2.05;;;25.60;82.90;;;;;;5056079;28;20016;-74
2023/08/08 11:39:09;;;;;;;4.30;2.03;;;25.70;81.70;;;;;;5053591;28;20044;-74
2023/08/08 11:41:35;;;;;;;8.02;2.20;;;25.80;80.90;;;;;;5057207;28;20110;-76
2023/08/08 11:44:03;;;;;;;5.55;2.60;;;25.70;72.50;;;;;;5055699;28;20017;-74
2023/08/08 11:46:30;;;;;;;6.57;2.50;;;25.60;73.10;;;;;;5056003;28;20104;-75
2023/08/08 11:49:06;;;;;;;5.35;2.10;;;25.60;73.20;;;;;;5054087;28;20025;-74
2023/08/08 11:51:34;;;;;;;4.85;2.42;;;25.70;73.80;;;;;;5053034;28;20024;-74
2023/08/08 11:54:02;;;;;;;4.10;2.28;;;25.90;77.70;;;;;;5057308;28;20033;-73
2023/08/08 11:56:28;;;;;;;3.90;2.30;;;26.00;77.40;;;;;;5058078;28;20041;-74
2023/08/08 11:58:55;;;;;;;4.75;2.00;;;25.90;74.00;;;;;;5053155;28;20065;-74
2023/08/08 12:01:22;;;;;;;5.60;2.78;;;25.80;77.80;;;;;;5054287;28;20036;-74
2023/08/08 12:03:48;;;;;;;3.60;2.17;;;25.90;77.20;;;;;;5054499;28;20393;-74
2023/08/08 12:06:17;;;;;;;6.35;2.42;;;25.80;73.50;;;;;;5060182;28;20035;-73
2023/08/08 12:08:44;;;;;;;4.03;2.33;;;25.90;73.50;;;;;;5054856;28;20116;-73
2023/08/08 12:11:13;;;;;;;5.72;2.70;;;26.00;76.60;;;;;;5057294;28;20029;-73
2023/08/08 12:13:41;;;;;;;5.05;1.90;;;26.20;72.90;;;;;;5055797;28;20025;-73
2023/08/08 12:16:11;;;;;;;4.65;2.10;;;26.40;72.60;;;;;;5055000;28;20067;-73
2023/08/08 12:18:38;;;;;;;5.85;2.10;;;26.70;73.20;;;;;;5051745;28;20036;-73
2023/08/08 12:21:05;;;;;;;3.65;2.15;;;26.80;68.70;;;;;;5058887;28;20510;-73
2023/08/08 12:23:31;;;;;;;5.35;2.20;;;26.90;71.70;;;;;;5057732;28;20049;-73
2023/08/08 12:25:58;;;;;;;6.57;2.33;;;26.90;70.40;;;;;;5059553;28;20025;-73
2023/08/08 12:28:24;;;;;;;8.90;2.63;;;26.80;67.00;;;;;;5058714;28;20021;-74
2023/08/08 12:30:49;;;;;;;6.22;2.33;;;26.90;64.10;;;;;;5060936;28;20029;-72
2023/08/08 12:33:15;;;;;;;4.35;2.28;;;26.90;67.60;;;;;;5059134;28;20032;-75
2023/08/08 12:35:41;;;;;;;3.53;1.88;;;27.00;61.70;;;;;;5059799;28;20025;-73
2023/08/08 12:38:07;;;;;;;5.70;2.25;;;27.00;63.90;;;;;;5059531;28;20074;-73
2023/08/08 12:40:33;;;;;;;6.38;2.20;;;26.90;67.50;;;;;;5062440;28;20025;-73
2023/08/08 12:42:59;;;;;;;4.47;2.42;;;26.90;64.80;;;;;;5058655;28;20107;-73
2023/08/08 12:45:25;;;;;;;4.65;2.40;;;26.90;61.50;;;;;;5061617;28;20104;-72